Time;durP1;ratioP1;P1;durP2;ratioP2;P2;SDS_P1;SDS_P2;PMS_P1;PMS_P2;Temp;Humidity;BMP_temperature;BMP_pressure;BME280_temperature;BME280_humidity;BME280_pressure;Samples;Min_cycle;Max_cycle;Signal;HPM_P1;HPM_P2
2023/07/25 00:01:40;;;;;;;9.20;7.20;;;;;;;18.38;100.00;96725.58;110154;1241;71922;-66
2023/07/25 00:04:11;;;;;;;14.40;10.10;;;;;;;18.36;100.00;96723.84;110115;1244;69254;-69
2023/07/25 00:06:42;;;;;;;13.40;9.90;;;;;;;18.31;100.00;96722.39;110257;1242;69305;-68
2023/07/25 00:09:12;;;;;;;17.40;13.50;;;;;;;18.27;100.00;96723.81;110112;1244;59660;-68
2023/07/25 00:11:46;;;;;;;15.00;11.80;;;;;;;18.27;100.00;96715.19;110164;1242;59689;-68
2023/07/25 00:14:16;;;;;;;15.50;11.10;;;;;;;18.24;100.00;96710.89;110136;1241;70535;-67
2023/07/25 00:16:47;;;;;;;14.50;11.40;;;;;;;18.20;100.00;96704.14;110155;1244;69112;-68
2023/07/25 00:19:17;;;;;;;15.30;11.90;;;;;;;18.17;100.00;96697.43;110112;1244;69174;-69
2023/07/25 00:21:48;;;;;;;18.20;13.80;;;;;;;18.18;100.00;96689.09;110146;1241;59690;-66
2023/07/25 00:24:19;;;;;;;16.40;12.20;;;;;;;18.18;100.00;96691.21;110297;1245;59633;-67
2023/07/25 00:26:51;;;;;;;17.20;12.10;;;;;;;18.17;100.00;96690.95;110181;1243;71449;-67
2023/07/25 00:29:22;;;;;;;15.80;10.80;;;;;;;18.18;100.00;96687.76;110141;1244;69285;-68
2023/07/25 00:31:55;;;;;;;12.70;10.20;;;;;;;18.21;100.00;96672.66;110107;1245;69273;-67
2023/07/25 00:34:29;;;;;;;13.30;10.40;;;;;;;18.22;100.00;96667.61;110166;1241;59757;-67
2023/07/25 00:37:01;;;;;;;11.10;9.10;;;;;;;18.23;100.00;96659.89;110142;1243;59695;-68
2023/07/25 00:39:35;;;;;;;13.60;9.90;;;;;;;18.24;100.00;96648.66;110183;1241;71450;-69
2023/07/25 00:42:11;;;;;;;13.50;9.40;;;;;;;18.22;100.00;96645.15;110200;1245;69177;-68
2023/07/25 00:44:45;;;;;;;13.30;8.50;;;;;;;18.22;100.00;96644.86;110214;1242;69701;-68
2023/07/25 00:47:19;;;;;;;12.70;8.80;;;;;;;18.22;100.00;96639.50;110173;1241;59748;-69
2023/07/25 00:49:51;;;;;;;11.60;9.00;;;;;;;18.23;100.00;96637.46;110137;1243;59714;-70
2023/07/25 00:52:23;;;;;;;13.10;9.20;;;;;;;18.24;100.00;96638.61;110199;1243;71458;-68
2023/07/25 00:54:55;;;;;;;12.00;8.60;;;;;;;18.23;100.00;96645.31;110191;1241;68503;-69
2023/07/25 00:57:26;;;;;;;11.60;8.50;;;;;;;18.21;100.00;96646.86;110211;1243;69301;-68
2023/07/25 00:59:59;;;;;;;14.00;8.90;;;;;;;18.19;100.00;96631.65;110141;1241;59693;-67
2023/07/25 01:02:30;;;;;;;11.60;8.70;;;;;;;18.13;100.00;96621.91;110169;1244;59624;-69
2023/07/25 01:05:01;;;;;;;12.20;8.80;;;;;;;17.99;100.00;96624.27;110145;1241;71445;-68
2023/07/25 01:07:35;;;;;;;10.70;7.40;;;;;;;18.08;100.00;96627.48;110310;1243;69083;-68
2023/07/25 01:10:07;;;;;;;11.30;7.90;;;;;;;18.06;100.00;96624.08;110166;1241;68532;-68
2023/07/25 01:12:39;;;;;;;9.70;7.50;;;;;;;18.03;100.00;96623.81;110179;1242;59756;-68
2023/07/25 01:15:13;;;;;;;10.40;7.80;;;;;;;17.98;100.00;96614.48;110192;1241;59681;-69
2023/07/25 01:17:45;;;;;;;11.90;8.60;;;;;;;17.95;100.00;96608.37;110026;1244;71503;-67
2023/07/25 01:20:15;;;;;;;;;;;;;;;17.91;100.00;96613.59;110164;1241;68466;-68
2023/07/25 01:22:47;;;;;;;11.50;7.80;;;;;;;17.88;100.00;96620.83;110116;1241;68234;-68
2023/07/25 01:25:18;;;;;;;12.80;8.70;;;;;;;17.83;100.00;96624.84;110117;1241;59691;-68
2023/07/25 01:27:49;;;;;;;10.40;7.80;;;;;;;17.80;100.00;96634.98;110157;1241;59757;-69
2023/07/25 01:30:23;;;;;;;12.40;8.30;;;;;;;17.80;100.00;96643.54;110124;1244;71369;-68
2023/07/25 01:32:54;;;;;;;10.00;7.70;;;;;;;17.80;100.00;96635.61;110111;1241;68558;-68
2023/07/25 01:35:25;;;;;;;11.30;8.00;;;;;;;17.78;100.00;96633.20;110129;1243;68725;-68
2023/07/25 01:37:55;;;;;;;10.10;7.70;;;;;;;17.71;100.00;96642.73;110140;1241;59746;-68
2023/07/25 01:40:27;;;;;;;10.90;6.80;;;;;;;17.75;100.00;96653.97;110183;1241;59728;-67
2023/07/25 01:42:57;;;;;;;11.40;7.80;;;;;;;17.86;100.00;96647.91;110176;1241;70528;-68
2023/07/25 01:45:30;;;;;;;9.50;7.50;;;;;;;17.90;100.00;96633.79;110165;1244;69457;-68
2023/07/25 01:48:02;;;;;;;12.90;7.70;;;;;;;17.94;100.00;96639.27;110142;1245;67544;-68
2023/07/25 01:50:35;;;;;;;10.90;7.50;;;;;;;18.02;100.00;96653.46;110166;1243;59720;-68
2023/07/25 01:53:07;;;;;;;11.00;7.50;;;;;;;18.12;100.00;96662.79;110184;1241;59714;-69
2023/07/25 01:55:40;;;;;;;11.30;7.20;;;;;;;18.19;100.00;96647.98;110123;1241;71515;-68
2023/07/25 01:58:12;;;;;;;11.50;7.80;;;;;;;18.26;100.00;96629.58;110169;1244;69999;-69
2023/07/25 02:00:44;;;;;;;13.00;8.40;;;;;;;18.26;100.00;96619.16;110165;1241;68674;-69
2023/07/25 02:03:17;;;;;;;12.50;8.80;;;;;;;18.17;100.00;96623.40;110159;1241;59811;-67
2023/07/25 02:05:52;;;;;;;10.60;8.20;;;;;;;18.06;100.00;96634.16;110141;1243;59714;-68
2023/07/25 02:08:24;;;;;;;10.70;7.80;;;;;;;17.98;100.00;96623.25;110121;1243;71260;-68
2023/07/25 02:10:58;;;;;;;11.20;7.80;;;;;;;17.96;100.00;96615.47;110140;1241;69298;-68
2023/07/25 02:13:28;;;;;;;9.10;7.40;;;;;;;17.92;100.00;96632.05;110140;1241;68320;-68
2023/07/25 02:16:01;;;;;;;10.90;8.20;;;;;;;17.91;100.00;96675.05;110167;1241;59692;-68
2023/07/25 02:18:32;;;;;;;10.20;7.30;;;;;;;17.87;100.00;96765.92;110173;1245;59643;-68
2023/07/25 02:21:04;;;;;;;12.60;8.20;;;;;;;18.00;100.00;96813.68;110136;1241;71410;-69
2023/07/25 02:23:34;;;;;;;17.40;9.50;;;;;;;18.05;100.00;96759.13;110097;1241;69395;-68
2023/07/25 02:26:04;;;;;;;13.80;9.20;;;;;;;18.09;100.00;96716.16;110140;1241;68560;-69
2023/07/25 02:28:37;;;;;;;10.90;8.20;;;;;;;18.06;100.00;96718.42;110077;1244;59704;-70
2023/07/25 02:31:06;;;;;;;;;;;;;;;18.04;100.00;96716.36;110186;1242;59672;-68
2023/07/25 02:33:39;;;;;;;13.00;8.90;;;;;;;17.99;100.00;96694.77;110162;1241;71419;-68
2023/07/25 02:36:12;;;;;;;12.70;8.60;;;;;;;17.93;100.00;96691.17;110108;1242;69365;-68
2023/07/25 02:38:43;;;;;;;12.40;8.70;;;;;;;17.90;100.00;96690.14;110144;1244;69102;-69
2023/07/25 02:41:14;;;;;;;14.80;8.70;;;;;;;17.86;100.00;96673.67;110119;1241;60025;-69
2023/07/25 02:43:47;;;;;;;11.70;8.40;;;;;;;17.86;100.00;96670.93;110150;1241;59681;-68
2023/07/25 02:46:18;;;;;;;11.90;8.60;;;;;;;17.86;100.00;96674.10;110061;1244;71401;-68
2023/07/25 02:48:48;;;;;;;13.10;8.80;;;;;;;17.86;100.00;96679.52;110153;1241;68817;-69
2023/07/25 02:51:20;;;;;;;10.80;7.40;;;;;;;17.87;100.00;96690.84;110134;1241;68503;-68
2023/07/25 02:53:51;;;;;;;11.00;7.80;;;;;;;17.88;100.00;96678.44;110086;1241;59704;-71
2023/07/25 02:56:22;;;;;;;11.60;8.20;;;;;;;17.89;100.00;96689.41;110180;1241;59667;-68
2023/07/25 02:58:52;;;;;;;12.90;8.40;;;;;;;17.91;100.00;96762.14;110094;1241;71448;-68
2023/07/25 05:35:25;;;;;;;15.90;11.10;;;;;;;17.97;100.00;96730.27;106459;1280;609282;-72
2023/07/25 05:37:55;;;;;;;14.30;11.20;;;;;;;18.04;100.00;96695.77;108943;1254;427657;-71
2023/07/25 05:40:24;;;;;;;13.90;10.40;;;;;;;18.02;100.00;96681.90;109179;1254;57712;-72
2023/07/25 05:42:54;;;;;;;16.20;12.20;;;;;;;17.99;100.00;96680.42;109290;1255;69136;-70
2023/07/25 05:45:23;;;;;;;16.00;11.00;;;;;;;18.02;100.00;96681.75;109182;1254;69148;-71
2023/07/25 05:47:53;;;;;;;13.60;10.30;;;;;;;18.02;100.00;96681.73;110145;1241;69359;-69
2023/07/25 05:50:22;;;;;;;16.80;11.30;;;;;;;18.06;100.00;96681.46;110167;1241;57683;-70
2023/07/25 05:52:52;;;;;;;17.10;11.80;;;;;;;18.08;100.00;96679.34;110187;1244;58054;-70
2023/07/25 05:55:21;;;;;;;15.30;11.00;;;;;;;18.10;100.00;96693.17;110159;1245;68242;-71
2023/07/25 05:57:50;;;;;;;16.10;11.30;;;;;;;18.15;100.00;96700.52;110223;1244;69858;-71
2023/07/25 06:00:20;;;;;;;15.60;11.10;;;;;;;18.18;100.00;96709.65;110208;1245;69281;-70
2023/07/25 06:02:50;;;;;;;15.40;11.20;;;;;;;18.20;100.00;96714.91;110092;1243;58127;-70
2023/07/25 06:05:19;;;;;;;;;;;;;;;18.25;100.00;96700.20;110236;1244;58014;-69
2023/07/25 06:20:33;;;;;;;14.90;10.90;;;;;;;18.82;100.00;96669.91;107342;1269;609965;-70
2023/07/25 06:23:04;;;;;;;14.30;9.60;;;;;;;19.07;100.00;96669.40;108910;1251;319218;-68
2023/07/25 06:25:32;;;;;;;13.40;9.90;;;;;;;19.22;100.00;96663.61;109349;1252;57696;-69
2023/07/25 06:28:02;;;;;;;14.30;10.10;;;;;;;19.44;100.00;96652.48;109280;1251;68613;-69
2023/07/25 06:30:32;;;;;;;13.80;10.90;;;;;;;19.55;100.00;96644.08;109308;1254;68144;-68
2023/07/25 06:33:01;;;;;;;12.20;9.40;;;;;;;19.61;100.00;96651.13;109161;1254;68514;-69
2023/07/25 06:35:30;;;;;;;11.60;9.20;;;;;;;19.70;100.00;96647.02;109108;1254;57703;-69
2023/07/25 06:37:59;;;;;;;12.50;8.90;;;;;;;19.86;100.00;96639.96;109211;1254;57719;-69
2023/07/25 06:40:30;;;;;;;13.40;9.50;;;;;;;20.02;100.00;96636.95;109203;1254;68979;-69
2023/07/25 06:43:00;;;;;;;11.40;8.80;;;;;;;20.11;100.00;96636.83;109144;1255;68655;-67
2023/07/25 06:45:29;;;;;;;13.20;9.20;;;;;;;20.27;100.00;96625.36;108983;1254;70235;-70
2023/07/25 06:47:58;;;;;;;;;;;;;;;20.64;100.00;96605.76;108999;1256;58145;-70
2023/07/25 06:50:28;;;;;;;13.00;9.20;;;;;;;21.14;100.00;96597.70;109103;1254;58037;-68
2023/07/25 06:52:59;;;;;;;12.20;8.30;;;;;;;21.61;100.00;96593.23;109167;1254;70334;-71
2023/07/25 06:55:28;;;;;;;11.80;8.30;;;;;;;21.99;100.00;96582.60;109178;1253;69235;-70
2023/07/25 06:57:58;;;;;;;12.40;8.10;;;;;;;22.32;100.00;96565.69;109140;1254;69303;-71
2023/07/25 07:00:27;;;;;;;10.70;8.00;;;;;;;22.45;99.73;96561.14;109243;1254;58192;-69
2023/07/25 07:02:56;;;;;;;11.70;7.80;;;;;;;22.85;99.95;96564.86;109181;1255;58110;-70
2023/07/25 07:05:26;;;;;;;10.80;8.10;;;;;;;23.27;98.11;96569.08;109148;1255;70044;-71
2023/07/25 07:07:59;;;;;;;13.00;7.70;;;;;;;23.79;97.74;96570.39;109719;1247;69177;-68
2023/07/25 07:10:32;;;;;;;9.90;7.00;;;;;;;24.16;92.36;96565.94;109721;1248;69289;-69
2023/07/25 07:13:00;;;;;;;10.70;7.40;;;;;;;24.28;88.96;96560.13;109684;1248;58029;-65
2023/07/25 07:15:30;;;;;;;10.30;7.70;;;;;;;24.19;88.47;96552.53;109744;1247;58087;-74
2023/07/25 07:17:59;;;;;;;10.00;7.00;;;;;;;24.17;86.62;96541.25;109698;1248;69805;-73
2023/07/25 07:20:28;;;;;;;10.20;7.70;;;;;;;24.11;86.35;96534.20;109681;1248;69377;-72
2023/07/25 07:22:57;;;;;;;10.90;7.70;;;;;;;24.20;85.88;96530.08;109704;1247;70076;-72
2023/07/25 07:25:26;;;;;;;;;;;;;;;24.40;86.46;96529.16;109790;1247;58070;-71
2023/07/25 07:27:55;;;;;;;9.30;6.60;;;;;;;24.63;86.62;96533.53;109816;1248;58095;-74
2023/07/25 07:30:25;;;;;;;10.60;7.00;;;;;;;24.69;82.85;96538.56;109632;1246;70019;-68
2023/07/25 07:32:56;;;;;;;11.60;7.10;;;;;;;24.80;82.59;96542.90;109750;1247;70307;-65
2023/07/25 07:35:25;;;;;;;8.80;6.00;;;;;;;24.88;82.64;96547.75;109710;1246;68546;-69
2023/07/25 07:37:55;;;;;;;10.30;6.20;;;;;;;24.99;80.76;96552.23;109708;1247;58440;-67
2023/07/25 07:40:24;;;;;;;10.20;7.40;;;;;;;25.16;79.64;96550.92;109703;1247;58148;-66
2023/07/25 07:42:53;;;;;;;10.90;7.50;;;;;;;25.48;77.42;96545.60;109679;1246;69700;-66
2023/07/25 07:45:23;;;;;;;11.40;6.90;;;;;;;25.81;73.30;96542.44;109661;1248;69634;-67
2023/07/25 07:47:53;;;;;;;10.20;6.70;;;;;;;26.10;72.98;96532.32;109707;1247;69217;-67
2023/07/25 07:50:23;;;;;;;11.70;6.70;;;;;;;26.40;72.22;96535.55;109722;1248;58072;-68
2023/07/25 07:52:54;;;;;;;11.70;6.10;;;;;;;26.71;69.07;96538.33;110124;1244;58043;-68
2023/07/25 07:55:24;;;;;;;;;;;;;;;27.10;70.91;96537.44;110137;1241;70260;-68
2023/07/25 07:57:55;;;;;;;8.80;5.90;;;;;;;27.61;70.07;96538.23;110111;1245;69821;-68
2023/07/25 08:00:24;;;;;;;9.80;6.10;;;;;;;28.08;67.88;96536.05;110105;1245;69809;-67
2023/07/25 08:02:53;;;;;;;;;;;;;;;28.47;66.79;96528.79;110140;1245;58056;-67
2023/07/25 08:05:22;;;;;;;9.20;6.30;;;;;;;28.66;63.52;96529.72;110119;1242;58024;-67
2023/07/25 08:07:51;;;;;;;8.30;5.70;;;;;;;28.77;63.82;96533.04;110103;1244;70362;-67
2023/07/25 08:10:21;;;;;;;8.10;5.80;;;;;;;29.12;63.36;96541.00;110120;1245;69766;-67
2023/07/25 08:12:52;;;;;;;9.00;5.60;;;;;;;29.41;62.12;96543.83;110075;1244;68527;-67
2023/07/25 08:15:21;;;;;;;8.70;5.60;;;;;;;29.76;60.88;96541.80;110118;1245;58130;-67
2023/07/25 08:17:51;;;;;;;8.40;5.40;;;;;;;29.92;56.79;96532.04;110152;1241;58137;-68
2023/07/25 08:20:20;;;;;;;7.40;5.50;;;;;;;30.07;55.76;96517.52;110165;1245;69635;-67
2023/07/25 08:22:50;;;;;;;7.60;5.30;;;;;;;29.97;53.68;96518.01;110152;1244;69290;-68
2023/07/25 08:25:18;;;;;;;;;;;;;;;30.03;55.22;96509.77;110123;1241;69129;-66
2023/07/25 08:27:47;;;;;;;7.00;4.80;;;;;;;30.17;53.57;96509.31;110137;1242;58128;-67
2023/07/25 08:30:17;;;;;;;7.00;5.00;;;;;;;30.19;53.12;96503.83;110067;1245;58104;-67
2023/07/25 08:32:45;;;;;;;;;;;;;;;30.26;54.04;96501.77;110160;1244;69349;-66
2023/07/25 08:35:14;;;;;;;;;;;;;;;30.22;55.23;96496.31;110120;1244;69204;-67
2023/07/25 08:37:43;;;;;;;6.70;5.20;;;;;;;30.43;55.03;96490.52;110121;1245;70218;-67
2023/07/25 08:40:12;;;;;;;7.10;5.00;;;;;;;30.58;53.68;96489.54;110112;1246;58136;-66
2023/07/25 08:42:45;;;;;;;6.70;4.90;;;;;;;30.86;54.80;96482.09;110121;1243;58140;-67
2023/07/25 08:45:15;;;;;;;7.80;5.10;;;;;;;31.15;53.97;96476.06;110138;1241;70188;-66
2023/07/25 08:47:45;;;;;;;8.20;5.60;;;;;;;31.45;52.86;96487.60;110086;1244;69651;-67
2023/07/25 08:50:19;;;;;;;7.80;4.70;;;;;;;31.48;50.30;96492.31;110043;1241;69731;-67
2023/07/25 08:52:55;;;;;;;7.50;5.10;;;;;;;31.19;50.76;96488.06;110127;1241;58122;-67
2023/07/25 08:55:26;;;;;;;5.40;4.10;;;;;;;31.55;51.95;96489.46;110126;1243;58532;-66
2023/07/25 08:57:56;;;;;;;8.10;5.20;;;;;;;31.98;52.23;96501.80;110134;1244;68971;-66
2023/07/25 09:00:27;;;;;;;6.80;4.80;;;;;;;32.16;49.49;96504.77;110123;1244;69897;-65
2023/07/25 09:14:22;;;;;;;6.90;5.10;;;;;;;33.09;45.43;96476.66;107248;1270;609841;-66
2023/07/25 09:16:51;;;;;;;6.50;4.90;;;;;;;32.52;45.51;96473.48;108953;1255;336004;-66
2023/07/25 09:19:21;;;;;;;7.10;5.00;;;;;;;32.77;46.67;96476.36;109401;1251;57663;-66
2023/07/25 09:21:57;;;;;;;7.30;4.50;;;;;;;32.98;44.57;96473.21;109299;1254;68079;-66
2023/07/25 09:24:37;;;;;;;6.90;4.60;;;;;;;33.18;44.00;96468.09;109339;1254;69326;-66
2023/07/25 09:27:16;;;;;;;7.50;4.70;;;;;;;33.10;45.14;96457.14;109313;1250;68865;-67
2023/07/25 09:29:50;;;;;;;6.20;3.70;;;;;;;33.37;44.82;96447.58;109391;1254;57671;-66
2023/07/25 09:32:23;;;;;;;6.70;4.20;;;;;;;33.49;43.42;96451.68;109408;1251;57703;-66
2023/07/25 09:34:56;;;;;;;5.70;4.20;;;;;;;33.75;44.17;96448.95;109423;1254;69712;-66
2023/07/25 09:37:27;;;;;;;7.50;4.30;;;;;;;33.84;44.10;96452.63;109423;1254;69306;-65
2023/07/25 09:39:57;;;;;;;5.20;3.90;;;;;;;34.25;43.05;96455.07;109386;1250;69348;-68
2023/07/25 09:42:26;;;;;;;5.80;4.00;;;;;;;34.50;42.65;96457.91;109454;1254;58063;-67
2023/07/25 09:44:56;;;;;;;5.50;4.00;;;;;;;34.79;41.88;96465.76;109454;1253;58050;-66
2023/07/25 09:47:27;;;;;;;7.50;4.40;;;;;;;35.06;41.42;96475.75;109417;1250;69849;-66
2023/07/25 09:49:56;;;;;;;6.30;3.70;;;;;;;35.22;40.70;96477.52;109380;1251;67737;-65
2023/07/25 09:52:25;;;;;;;6.80;3.30;;;;;;;35.34;39.87;96471.16;109353;1253;69904;-67
2023/07/25 09:54:54;;;;;;;5.90;3.70;;;;;;;35.40;39.43;96463.30;109328;1251;58093;-66
2023/07/25 09:57:24;;;;;;;5.30;3.30;;;;;;;35.39;38.57;96462.45;109329;1254;58088;-66
2023/07/25 09:59:55;;;;;;;6.30;4.00;;;;;;;35.42;38.37;96468.48;109344;1251;70563;-66
2023/07/25 10:02:25;;;;;;;5.40;3.80;;;;;;;35.41;38.19;96461.34;109317;1253;69870;-65
2023/07/25 10:04:56;;;;;;;6.30;3.80;;;;;;;35.17;38.02;96456.66;109319;1251;69250;-66
2023/07/25 10:07:25;;;;;;;5.50;3.60;;;;;;;35.06;38.42;96460.45;109275;1254;58105;-65
2023/07/25 10:09:57;;;;;;;5.60;4.00;;;;;;;34.94;38.58;96461.66;109336;1253;58127;-66
2023/07/25 10:12:26;;;;;;;5.80;3.60;;;;;;;34.96;40.83;96460.02;109302;1251;69562;-66
2023/07/25 10:14:56;;;;;;;5.80;3.00;;;;;;;35.36;38.66;96456.25;109791;1245;69876;-66
2023/07/25 10:17:25;;;;;;;6.00;3.90;;;;;;;35.34;39.04;96455.35;109841;1246;69894;-66
2023/07/25 10:19:55;;;;;;;5.10;3.40;;;;;;;35.79;38.93;96454.59;109833;1244;58086;-66
2023/07/25 10:22:42;;;;;;;5.80;3.70;;;;;;;35.86;39.97;96455.42;109836;1248;58026;-66
2023/07/25 10:25:18;;;;;;;6.90;3.50;;;;;;;35.93;38.76;96453.95;109935;1246;69803;-65
2023/07/25 10:27:54;;;;;;;5.00;3.60;;;;;;;36.07;37.61;96450.02;109881;1244;69268;-66
2023/07/25 10:30:25;;;;;;;6.20;3.70;;;;;;;35.98;37.09;96450.29;109868;1246;69962;-67
2023/07/25 10:32:58;;;;;;;5.40;4.10;;;;;;;35.39;38.52;96445.83;109913;1246;58563;-67
2023/07/25 10:35:52;;;;;;;5.40;3.80;;;;;;;35.21;37.97;96438.15;109815;1244;58125;-65
2023/07/25 10:38:42;;;;;;;5.20;3.90;;;;;;;35.28;38.47;96432.89;109814;1244;69786;-66
2023/07/25 10:41:13;;;;;;;6.10;3.90;;;;;;;35.30;38.14;96419.50;109762;1244;69211;-66
2023/07/25 10:43:45;;;;;;;5.90;4.00;;;;;;;35.21;37.97;96416.19;109838;1246;69910;-67
2023/07/25 10:46:17;;;;;;;5.50;4.10;;;;;;;34.97;38.20;96410.65;109951;1244;58078;-66
2023/07/25 10:48:52;;;;;;;5.70;4.20;;;;;;;34.87;38.45;96408.27;109838;1244;58121;-66
2023/07/25 10:51:23;;;;;;;5.70;3.70;;;;;;;34.58;38.50;96401.79;109792;1246;70190;-66
2023/07/25 10:54:10;;;;;;;6.20;4.00;;;;;;;34.52;38.93;96399.91;109850;1245;69289;-64
2023/07/25 10:56:40;;;;;;;7.40;4.40;;;;;;;34.55;39.43;96397.16;109799;1245;69876;-66
2023/07/25 10:59:10;;;;;;;7.20;4.70;;;;;;;34.60;39.54;96392.38;109800;1245;58076;-66
2023/07/25 11:01:48;;;;;;;6.50;4.50;;;;;;;34.65;39.22;96391.44;109792;1244;58098;-66
2023/07/25 11:04:24;;;;;;;5.60;4.20;;;;;;;34.63;39.16;96404.83;109783;1246;69944;-67
2023/07/25 11:06:59;;;;;;;6.60;4.60;;;;;;;34.58;38.76;96393.23;109823;1245;68931;-67
2023/07/25 11:09:28;;;;;;;6.20;4.00;;;;;;;34.72;40.31;96388.16;109885;1246;69893;-66
2023/07/25 11:11:58;;;;;;;6.30;4.00;;;;;;;35.02;39.62;96377.42;109839;1245;58205;-65
2023/07/25 11:14:27;;;;;;;6.20;4.90;;;;;;;35.09;38.90;96370.33;109812;1248;58086;-66
2023/07/25 11:16:56;;;;;;;6.50;4.30;;;;;;;34.77;39.09;96361.06;109783;1244;70371;-65
2023/07/25 11:19:26;;;;;;;6.40;4.10;;;;;;;34.57;39.81;96354.27;109803;1244;69294;-66
2023/07/25 11:21:56;;;;;;;7.30;4.40;;;;;;;34.17;39.91;96350.14;109752;1246;68521;-66
2023/07/25 11:24:25;;;;;;;6.50;4.80;;;;;;;34.05;41.34;96343.92;109709;1246;58096;-66
2023/07/25 11:26:54;;;;;;;6.20;4.50;;;;;;;34.01;41.39;96339.85;109795;1245;58073;-67
2023/07/25 11:29:22;;;;;;;;;;;;;;;33.72;41.54;96340.48;109794;1245;71223;-66
2023/07/25 11:31:51;;;;;;;8.10;4.90;;;;;;;33.74;41.52;96341.83;109786;1245;68301;-66
2023/07/25 11:34:21;;;;;;;6.50;4.20;;;;;;;33.89;41.81;96342.61;109776;1245;69498;-65
2023/07/25 11:36:50;;;;;;;7.40;4.80;;;;;;;34.13;41.14;96342.23;109752;1246;58122;-65
2023/07/25 11:39:22;;;;;;;8.60;4.60;;;;;;;34.34;40.90;96340.59;110262;1241;58093;-66
2023/07/25 11:41:51;;;;;;;7.50;4.70;;;;;;;34.58;40.68;96331.90;110285;1241;69847;-66
2023/07/25 11:44:20;;;;;;;8.10;5.00;;;;;;;34.69;39.48;96328.75;110275;1241;69797;-66
2023/07/25 11:46:53;;;;;;;7.20;4.60;;;;;;;34.71;39.15;96323.58;110220;1241;69656;-65
2023/07/25 11:49:22;;;;;;;6.60;4.60;;;;;;;34.72;39.09;96324.92;110225;1239;58106;-65
2023/07/25 11:52:12;;;;;;;7.40;4.60;;;;;;;34.85;39.26;96327.41;110229;1242;58085;-66
2023/07/25 11:54:41;;;;;;;7.20;4.10;;;;;;;34.89;39.07;96327.83;110228;1241;70137;-66
2023/07/25 11:57:11;;;;;;;8.60;5.00;;;;;;;34.97;39.15;96323.45;110267;1239;69261;-66
2023/07/25 11:59:41;;;;;;;6.20;4.10;;;;;;;35.06;38.47;96328.27;110270;1240;69295;-66
2023/07/25 12:02:13;;;;;;;7.80;4.80;;;;;;;35.04;37.96;96328.42;110244;1241;58069;-66
2023/07/25 12:04:44;;;;;;;5.60;3.60;;;;;;;34.90;39.15;96321.63;110277;1241;58079;-66
2023/07/25 12:07:14;;;;;;;8.10;4.60;;;;;;;35.08;39.37;96318.86;110310;1241;70377;-65
2023/07/25 12:09:53;;;;;;;6.90;4.10;;;;;;;35.08;39.58;96313.10;110271;1241;69819;-65
2023/07/25 12:12:22;;;;;;;6.70;4.00;;;;;;;34.99;39.35;96311.42;110242;1241;69889;-65
2023/07/25 12:15:00;;;;;;;6.90;4.10;;;;;;;34.90;39.34;96303.02;110221;1240;58144;-67
2023/07/25 12:17:45;;;;;;;5.90;3.90;;;;;;;34.87;39.75;96295.99;110271;1240;58122;-64
2023/07/25 12:20:16;;;;;;;5.70;4.00;;;;;;;34.79;39.81;96287.00;110293;1241;69750;-65
2023/07/25 12:22:46;;;;;;;7.60;4.60;;;;;;;34.65;40.06;96280.08;110255;1241;69307;-65
2023/07/25 12:25:18;;;;;;;6.10;4.50;;;;;;;34.52;39.94;96279.77;110249;1241;69866;-66
2023/07/25 12:27:48;;;;;;;7.00;4.70;;;;;;;34.55;40.30;96274.75;110218;1240;58141;-67
2023/07/25 12:30:17;;;;;;;9.20;5.10;;;;;;;34.54;40.98;96267.39;110260;1239;58082;-66
2023/07/25 12:32:47;;;;;;;10.30;6.00;;;;;;;34.56;40.95;96259.53;110262;1241;69740;-65
2023/07/25 12:35:16;;;;;;;8.20;5.00;;;;;;;34.43;39.29;96249.59;110270;1241;68779;-65
2023/07/25 12:37:46;;;;;;;7.90;5.20;;;;;;;34.29;38.93;96242.73;110253;1241;69059;-65
2023/07/25 12:40:15;;;;;;;8.80;5.20;;;;;;;34.34;39.95;96241.14;110296;1242;58147;-65
2023/07/25 12:42:44;;;;;;;7.20;4.30;;;;;;;34.31;40.70;96248.51;110275;1241;58150;-66
2023/07/25 12:45:13;;;;;;;7.00;4.50;;;;;;;34.38;40.87;96253.29;110256;1239;70757;-66
2023/07/25 12:47:43;;;;;;;7.50;5.30;;;;;;;34.54;40.28;96258.48;110386;1240;69639;-66
2023/07/25 12:50:12;;;;;;;8.90;4.50;;;;;;;34.58;40.35;96259.19;110299;1241;69225;-64
2023/07/25 12:52:41;;;;;;;7.30;3.90;;;;;;;34.77;40.58;96258.42;110328;1241;58134;-66
2023/07/25 12:55:10;;;;;;;8.60;5.00;;;;;;;34.84;40.37;96261.23;110307;1241;58079;-64
2023/07/25 12:57:39;;;;;;;9.70;5.20;;;;;;;34.74;40.38;96254.94;110332;1241;70126;-65
2023/07/25 13:00:09;;;;;;;7.00;4.70;;;;;;;34.46;39.91;96245.00;110378;1241;69246;-66
2023/07/25 13:02:38;;;;;;;7.50;4.50;;;;;;;34.41;40.12;96246.15;110463;1240;69123;-66
2023/07/25 13:05:07;;;;;;;7.90;5.90;;;;;;;34.36;41.03;96247.45;110183;1243;58150;-66
2023/07/25 13:07:37;;;;;;;9.00;5.00;;;;;;;34.34;40.41;96242.66;110340;1241;58018;-64
2023/07/25 13:10:07;;;;;;;10.00;6.10;;;;;;;34.39;40.46;96243.30;110435;1240;70353;-67
2023/07/25 13:12:37;;;;;;;8.40;5.70;;;;;;;34.44;41.01;96242.27;110408;1239;69357;-67
2023/07/25 13:15:07;;;;;;;11.90;6.30;;;;;;;34.50;40.50;96246.45;110361;1241;68500;-67
2023/07/25 13:17:36;;;;;;;10.50;5.90;;;;;;;34.44;39.79;96244.98;110360;1241;58106;-66
2023/07/25 13:20:08;;;;;;;7.60;5.30;;;;;;;34.51;39.81;96245.70;110370;1241;58133;-66
2023/07/25 13:22:37;;;;;;;10.60;6.00;;;;;;;34.74;40.20;96244.03;110372;1240;70352;-65
2023/07/25 13:25:07;;;;;;;8.20;5.60;;;;;;;34.65;39.07;96254.75;110447;1241;69842;-67
2023/07/25 13:27:35;;;;;;;8.20;6.00;;;;;;;34.42;39.04;96256.73;110353;1240;69296;-67
2023/07/25 13:30:05;;;;;;;9.40;5.80;;;;;;;34.20;39.33;96261.08;110478;1241;58858;-67
2023/07/25 13:32:34;;;;;;;7.50;5.00;;;;;;;33.89;40.37;96253.61;110374;1240;58906;-67
2023/07/25 13:35:04;;;;;;;6.80;4.90;;;;;;;33.78;40.47;96251.39;110367;1240;71225;-66
2023/07/25 13:37:33;;;;;;;7.50;5.30;;;;;;;33.81;40.56;96244.58;110351;1239;69821;-67
2023/07/25 13:40:03;;;;;;;8.40;4.90;;;;;;;33.76;40.50;96243.38;110318;1240;69702;-67
2023/07/25 13:42:33;;;;;;;9.80;5.90;;;;;;;33.68;40.23;96238.81;110438;1240;58939;-68
2023/07/25 13:45:03;;;;;;;9.60;5.40;;;;;;;33.60;40.41;96239.89;110336;1241;58870;-67
2023/07/25 13:47:32;;;;;;;7.60;4.80;;;;;;;33.59;40.66;96237.28;110258;1243;69912;-68
2023/07/25 13:50:02;;;;;;;11.80;6.20;;;;;;;33.67;40.87;96235.73;110167;1240;69278;-67
2023/07/25 13:52:31;;;;;;;6.80;5.00;;;;;;;33.67;41.13;96234.23;110304;1239;69862;-68
2023/07/25 13:55:01;;;;;;;8.60;5.60;;;;;;;33.62;41.35;96232.11;110290;1241;59321;-67
2023/07/25 13:57:31;;;;;;;7.90;5.70;;;;;;;33.56;41.57;96230.75;110342;1241;58951;-68
2023/07/25 14:00:05;;;;;;;9.70;4.70;;;;;;;33.46;41.67;96228.30;110365;1240;71917;-66
2023/07/25 14:02:35;;;;;;;7.90;4.70;;;;;;;33.50;42.00;96225.40;110436;1241;69198;-66
2023/07/25 14:05:04;;;;;;;9.00;5.30;;;;;;;33.64;43.30;96227.96;110475;1241;69921;-67
2023/07/25 14:07:33;;;;;;;7.30;4.70;;;;;;;33.79;44.46;96225.95;110462;1241;58931;-66
2023/07/25 14:10:03;;;;;;;8.80;5.60;;;;;;;33.92;43.51;96214.48;110397;1241;58901;-66
2023/07/25 14:12:32;;;;;;;9.90;5.80;;;;;;;34.07;42.82;96208.84;110449;1241;71189;-65
2023/07/25 14:15:02;;;;;;;10.80;6.50;;;;;;;34.16;42.51;96209.77;110494;1241;69826;-68
2023/07/25 14:17:31;;;;;;;9.90;6.50;;;;;;;34.18;42.65;96204.53;110440;1241;67852;-66
2023/07/25 14:20:04;;;;;;;9.80;6.00;;;;;;;34.10;41.99;96194.92;110467;1241;58856;-66
2023/07/25 14:22:33;;;;;;;9.40;5.80;;;;;;;34.09;41.64;96184.36;110367;1242;58947;-66
2023/07/25 14:25:02;;;;;;;8.90;5.70;;;;;;;34.10;42.01;96173.61;110426;1241;70392;-67
2023/07/25 14:27:31;;;;;;;10.00;6.00;;;;;;;34.03;42.10;96172.91;110404;1241;70039;-67
2023/07/25 14:30:00;;;;;;;9.90;6.70;;;;;;;33.88;42.62;96174.45;110191;1240;69272;-67
2023/07/25 14:32:29;;;;;;;9.70;5.60;;;;;;;33.88;42.61;96170.52;110446;1241;58926;-67
2023/07/25 14:34:59;;;;;;;9.00;5.40;;;;;;;33.77;43.90;96166.14;110395;1241;58933;-67